createdAt,value
2023-05-06T00:00:43.551Z,1144.00
2023-05-06T00:01:43.595Z,1155.00
2023-05-06T00:02:43.720Z,1140.00
2023-05-06T00:03:43.987Z,1153.00
2023-05-06T00:04:43.888Z,1154.00
2023-05-06T00:05:43.824Z,1157.00
2023-05-06T00:06:43.880Z,1151.00
2023-05-06T00:07:43.926Z,1138.00
2023-05-06T00:08:43.990Z,1140.00
2023-05-06T00:09:44.079Z,1171.00
2023-05-06T00:10:44.115Z,1171.00
2023-05-06T00:11:44.161Z,1157.00
2023-05-06T00:12:44.264Z,1158.00
2023-05-06T00:13:44.301Z,1177.00
2023-05-06T00:14:44.345Z,1182.00
2023-05-06T00:15:44.409Z,1157.00
2023-05-06T00:16:44.577Z,1187.00
2023-05-06T00:17:44.558Z,1188.00
2023-05-06T00:18:44.600Z,1186.00
2023-05-06T00:19:44.660Z,1187.00
2023-05-06T00:20:44.712Z,1219.00
2023-05-06T00:21:44.755Z,1214.00
2023-05-06T00:22:44.835Z,1216.00
2023-05-06T00:23:44.890Z,1205.00
2023-05-06T00:24:44.967Z,1203.00
2023-05-06T00:25:45.014Z,1225.00
2023-05-06T00:26:45.070Z,1225.00
2023-05-06T00:27:45.127Z,1231.00
2023-05-06T00:28:45.182Z,1225.00
2023-05-06T00:29:45.243Z,1200.00
2023-05-06T00:30:45.310Z,1236.00
2023-05-06T00:31:45.444Z,1250.00
2023-05-06T00:32:45.514Z,1202.00
2023-05-06T00:33:45.460Z,1230.00
2023-05-06T00:34:45.533Z,1238.00
2023-05-06T00:35:45.599Z,1227.00
2023-05-06T00:36:45.648Z,1223.00
2023-05-06T00:37:45.724Z,1237.00
2023-05-06T00:38:45.748Z,1229.00
2023-05-06T00:39:45.810Z,1228.00
2023-05-06T00:40:45.857Z,1235.00
2023-05-06T00:41:45.910Z,1250.00
2023-05-06T00:42:45.974Z,1234.00
2023-05-06T00:43:46.012Z,1272.00
2023-05-06T00:44:46.073Z,1271.00
2023-05-06T00:45:46.161Z,1279.00
2023-05-06T00:46:46.197Z,1273.00
2023-05-06T00:47:46.271Z,1265.00
2023-05-06T00:48:46.363Z,1235.00
2023-05-06T00:49:46.364Z,1211.00
2023-05-06T00:50:46.413Z,1250.00
2023-05-06T00:51:46.429Z,1260.00
2023-05-06T00:52:46.465Z,1266.00
2023-05-06T00:53:46.505Z,1276.00
2023-05-06T00:54:46.540Z,1280.00
2023-05-06T00:55:46.570Z,1273.00
2023-05-06T00:56:46.596Z,1276.00
2023-05-06T00:57:46.659Z,1261.00
2023-05-06T00:58:46.717Z,1251.00
2023-05-06T00:59:46.746Z,1255.00
2023-05-06T01:00:46.822Z,1279.00
2023-05-06T01:01:46.838Z,1262.00
2023-05-06T01:02:48.023Z,1267.00
2023-05-06T01:03:47.084Z,1281.00
2023-05-06T01:04:47.148Z,1282.00
2023-05-06T01:05:47.059Z,1280.00
2023-05-06T01:06:47.097Z,1302.00
2023-05-06T01:07:47.154Z,1311.00
2023-05-06T01:08:47.207Z,1304.00
2023-05-06T01:09:47.289Z,1297.00
2023-05-06T01:10:47.299Z,1306.00
2023-05-06T01:11:47.349Z,1298.00
2023-05-06T01:12:47.548Z,1280.00
2023-05-06T01:13:47.429Z,1277.00
2023-05-06T01:14:47.479Z,1305.00
2023-05-06T01:15:47.545Z,1284.00
2023-05-06T01:16:47.607Z,1286.00
2023-05-06T01:17:47.590Z,1290.00
2023-05-06T01:18:47.625Z,1269.00
2023-05-06T01:19:47.657Z,1247.00
2023-05-06T01:20:47.746Z,1272.00
2023-05-06T01:21:47.706Z,1281.00
2023-05-06T01:22:47.763Z,1246.00
2023-05-06T01:23:47.785Z,1256.00
2023-05-06T01:24:47.839Z,1281.00
2023-05-06T01:25:47.885Z,1259.00
2023-05-06T01:26:47.913Z,1254.00
2023-05-06T01:27:47.971Z,1229.00
2023-05-06T01:28:48.007Z,1196.00
2023-05-06T01:29:48.042Z,1230.00
2023-05-06T01:30:48.110Z,1229.00
2023-05-06T01:31:48.116Z,1236.00
2023-05-06T01:32:48.144Z,1242.00
2023-05-06T01:33:48.169Z,1252.00
2023-05-06T01:34:48.204Z,1223.00
2023-05-06T01:35:48.246Z,1253.00
2023-05-06T01:36:48.322Z,1265.00
2023-05-06T01:37:48.300Z,1228.00
2023-05-06T01:38:48.306Z,1248.00
2023-05-06T01:39:48.331Z,1230.00
2023-05-06T01:40:48.380Z,1217.00
2023-05-06T01:41:48.369Z,1172.00
2023-05-06T01:42:48.366Z,1184.00
2023-05-06T01:43:48.397Z,1190.00
2023-05-06T01:44:48.448Z,1172.00
2023-05-06T01:45:48.451Z,1183.00
2023-05-06T01:46:48.534Z,1208.00
2023-05-06T01:47:48.518Z,1168.00
2023-05-06T01:48:48.497Z,1158.00
2023-05-06T01:49:48.509Z,1169.00
2023-05-06T01:50:48.510Z,1172.00
2023-05-06T01:51:48.538Z,1152.00
2023-05-06T01:52:48.549Z,1149.00
2023-05-06T01:53:48.535Z,1145.00
2023-05-06T01:54:48.538Z,1160.00
2023-05-06T01:55:48.556Z,1168.00
2023-05-06T01:56:48.546Z,1108.00
2023-05-06T01:57:48.520Z,1124.00
2023-05-06T01:58:48.523Z,1146.00
2023-05-06T01:59:48.542Z,1136.00
2023-05-06T02:00:48.549Z,1165.00
2023-05-06T02:01:48.603Z,1098.00
2023-05-06T02:02:48.607Z,1097.00
2023-05-06T02:03:48.670Z,1077.00
2023-05-06T02:04:48.545Z,1080.00
2023-05-06T02:05:48.546Z,1083.00
2023-05-06T02:06:48.565Z,1108.00
2023-05-06T02:07:48.574Z,1103.00
2023-05-06T02:08:48.626Z,1083.00
2023-05-06T02:09:48.596Z,1130.00
2023-05-06T02:10:48.624Z,1077.00
2023-05-06T02:11:48.607Z,1050.00
2023-05-06T02:12:48.586Z,1065.00
2023-05-06T02:13:48.586Z,1086.00
2023-05-06T02:14:48.612Z,1094.00
2023-05-06T02:15:48.580Z,1062.00
2023-05-06T02:16:48.587Z,1045.00
2023-05-06T02:17:48.584Z,1044.00
2023-05-06T02:18:48.586Z,1070.00
2023-05-06T02:19:48.573Z,1084.00
2023-05-06T02:20:48.571Z,1102.00
2023-05-06T02:21:48.594Z,1092.00
2023-05-06T02:22:48.568Z,1103.00
2023-05-06T02:23:48.581Z,1109.00
2023-05-06T02:24:48.616Z,1084.00
2023-05-06T02:25:48.584Z,1083.00
2023-05-06T02:26:48.573Z,1086.00
2023-05-06T02:27:48.560Z,1107.00
2023-05-06T02:28:48.547Z,1111.00
2023-05-06T02:29:48.536Z,1100.00
2023-05-06T02:30:48.603Z,1112.00
2023-05-06T02:31:48.613Z,1108.00
2023-05-06T02:32:48.582Z,1108.00
2023-05-06T02:33:48.550Z,1082.00
2023-05-06T02:34:48.530Z,1127.00
2023-05-06T02:35:48.540Z,1129.00
2023-05-06T02:36:48.546Z,1091.00
2023-05-06T02:37:48.531Z,1112.00
2023-05-06T02:38:48.561Z,1105.00
2023-05-06T02:39:48.534Z,1117.00
2023-05-06T02:40:48.608Z,1147.00
2023-05-06T02:41:48.564Z,1135.00
2023-05-06T02:42:48.571Z,1092.00
2023-05-06T02:43:48.544Z,1117.00
2023-05-06T02:44:48.539Z,1113.00
2023-05-06T02:45:48.590Z,1136.00
2023-05-06T02:46:48.545Z,1123.00
2023-05-06T02:47:48.578Z,1070.00
2023-05-06T02:48:48.557Z,1098.00
2023-05-06T02:49:48.546Z,1120.00
2023-05-06T02:50:48.530Z,1105.00
2023-05-06T02:51:48.559Z,1125.00
2023-05-06T02:52:48.557Z,1112.00
2023-05-06T02:53:48.564Z,1086.00
2023-05-06T02:54:48.599Z,1072.00
2023-05-06T02:55:48.556Z,1084.00
2023-05-06T02:56:48.614Z,1121.00
2023-05-06T02:57:48.546Z,1118.00
2023-05-06T02:58:48.568Z,1130.00
2023-05-06T02:59:48.565Z,1135.00
2023-05-06T03:00:48.576Z,1132.00
2023-05-06T03:01:48.599Z,1115.00
2023-05-06T03:02:48.622Z,1127.00
2023-05-06T03:03:48.599Z,1139.00
2023-05-06T03:04:48.589Z,1123.00
2023-05-06T03:05:48.596Z,1100.00
2023-05-06T03:06:48.597Z,1088.00
2023-05-06T03:07:48.601Z,1113.00
2023-05-06T03:08:48.589Z,1134.00
2023-05-06T03:09:48.576Z,1159.00
2023-05-06T03:10:48.577Z,1142.00
2023-05-06T03:11:48.604Z,1160.00
2023-05-06T03:12:48.627Z,1151.00
2023-05-06T03:13:48.608Z,1145.00
2023-05-06T03:14:48.612Z,1135.00
2023-05-06T03:15:48.648Z,1130.00
2023-05-06T03:16:48.712Z,1128.00
2023-05-06T03:17:48.653Z,1141.00
2023-05-06T03:18:48.639Z,1161.00
2023-05-06T03:19:48.687Z,1153.00
2023-05-06T03:20:48.661Z,1162.00
2023-05-06T03:21:48.868Z,1183.00
2023-05-06T03:22:48.707Z,1164.00
2023-05-06T03:23:48.707Z,1164.00
2023-05-06T03:24:48.705Z,1178.00
2023-05-06T03:25:48.711Z,1159.00
2023-05-06T03:26:48.711Z,1145.00
2023-05-06T03:27:48.755Z,1181.00
2023-05-06T03:28:48.791Z,1167.00
2023-05-06T03:29:48.752Z,1162.00
2023-05-06T03:30:48.760Z,1187.00
2023-05-06T03:31:48.808Z,1183.00
2023-05-06T03:32:48.854Z,1178.00
2023-05-06T03:33:48.746Z,1165.00
2023-05-06T03:34:48.782Z,1160.00
2023-05-06T03:35:48.796Z,1181.00
2023-05-06T03:36:48.793Z,1165.00
2023-05-06T03:37:48.784Z,1146.00
2023-05-06T03:38:48.806Z,1153.00
2023-05-06T03:39:48.829Z,1184.00
2023-05-06T03:40:48.812Z,1154.00
2023-05-06T03:41:48.800Z,1174.00
2023-05-06T03:42:48.803Z,1172.00
2023-05-06T03:43:48.809Z,1174.00
2023-05-06T03:44:49.008Z,1178.00
2023-05-06T03:45:48.850Z,1200.00
2023-05-06T03:46:48.865Z,1185.00
2023-05-06T03:47:48.894Z,1185.00
2023-05-06T03:48:48.886Z,1180.00
2023-05-06T03:49:48.886Z,1186.00
2023-05-06T03:50:48.880Z,1197.00
2023-05-06T03:51:48.886Z,1201.00
2023-05-06T03:52:48.907Z,1190.00
2023-05-06T03:53:48.914Z,1208.00
2023-05-06T03:54:48.919Z,1198.00
2023-05-06T03:55:48.988Z,1212.00
2023-05-06T03:56:49.027Z,1210.00
2023-05-06T03:57:49.017Z,1229.00
2023-05-06T03:58:49.076Z,1218.00
2023-05-06T03:59:49.062Z,1194.00
2023-05-06T04:00:49.050Z,1206.00
2023-05-06T04:01:49.095Z,1218.00
2023-05-06T04:02:49.121Z,1214.00
2023-05-06T04:03:49.133Z,1250.00
2023-05-06T04:04:49.084Z,1243.00
2023-05-06T04:05:49.198Z,1230.00
2023-05-06T04:06:49.297Z,1199.00
2023-05-06T04:07:49.333Z,1224.00
2023-05-06T04:08:49.330Z,1234.00
2023-05-06T04:09:49.335Z,1250.00
2023-05-06T04:10:49.365Z,1245.00
2023-05-06T04:11:49.358Z,1253.00
2023-05-06T04:12:49.498Z,1253.00
2023-05-06T04:13:49.492Z,1249.00
2023-05-06T04:14:49.500Z,1263.00
2023-05-06T04:15:49.548Z,1274.00
2023-05-06T04:16:49.651Z,1253.00
2023-05-06T04:17:49.576Z,1260.00
2023-05-06T04:18:49.593Z,1259.00
2023-05-06T04:19:49.565Z,1259.00
2023-05-06T04:20:49.573Z,1271.00
2023-05-06T04:21:49.566Z,1257.00
2023-05-06T04:22:49.624Z,1261.00
2023-05-06T04:23:49.618Z,1267.00
2023-05-06T04:24:49.625Z,1255.00
2023-05-06T04:25:49.647Z,1269.00
2023-05-06T04:26:49.674Z,1280.00
2023-05-06T04:27:49.700Z,1308.00
2023-05-06T04:28:49.710Z,1294.00
2023-05-06T04:29:49.713Z,1310.00
2023-05-06T04:30:49.711Z,1303.00
2023-05-06T04:31:49.762Z,1316.00
2023-05-06T04:32:49.847Z,1314.00
2023-05-06T04:33:49.979Z,1293.00
2023-05-06T04:34:49.862Z,1305.00
2023-05-06T04:35:49.880Z,1319.00
2023-05-06T04:36:49.912Z,1284.00
2023-05-06T04:37:49.968Z,1294.00
2023-05-06T04:38:49.984Z,1289.00
2023-05-06T04:39:49.999Z,1324.00
2023-05-06T04:40:50.014Z,1301.00
2023-05-06T04:41:50.042Z,1307.00
2023-05-06T04:42:50.042Z,1313.00
2023-05-06T04:43:50.033Z,1320.00
2023-05-06T04:44:50.093Z,1304.00
2023-05-06T04:45:50.132Z,1305.00
2023-05-06T04:46:50.074Z,1314.00
2023-05-06T04:47:50.229Z,1308.00
2023-05-06T04:48:50.189Z,1300.00
2023-05-06T04:49:50.212Z,1300.00
2023-05-06T04:50:50.216Z,1318.00
2023-05-06T04:51:50.285Z,1325.00
2023-05-06T04:52:50.381Z,1305.00
2023-05-06T04:53:50.390Z,1307.00
2023-05-06T04:54:50.402Z,1295.00
2023-05-06T04:55:50.416Z,1301.00
2023-05-06T04:56:50.429Z,1298.00
2023-05-06T04:57:50.438Z,1290.00
2023-05-06T04:58:50.485Z,1278.00
2023-05-06T04:59:50.531Z,1287.00
2023-05-06T05:00:50.505Z,1280.00
2023-05-06T05:01:50.714Z,1296.00
2023-05-06T05:02:50.635Z,1274.00
2023-05-06T05:03:50.635Z,1280.00
2023-05-06T05:04:50.634Z,1291.00
2023-05-06T05:05:50.586Z,1274.00
2023-05-06T05:06:50.619Z,1271.00
2023-05-06T05:07:50.639Z,1253.00
2023-05-06T05:08:50.666Z,1248.00
2023-05-06T05:09:50.670Z,1246.00
2023-05-06T05:10:50.720Z,1257.00
2023-05-06T05:11:50.708Z,1242.00
2023-05-06T05:12:50.739Z,1251.00
2023-05-06T05:13:50.714Z,1241.00
2023-05-06T05:14:50.735Z,1223.00
2023-05-06T05:15:50.745Z,1215.00
2023-05-06T05:16:50.815Z,1211.00
2023-05-06T05:17:50.832Z,1218.00
2023-05-06T05:18:50.806Z,1205.00
2023-05-06T05:19:50.824Z,1189.00
2023-05-06T05:20:50.880Z,1211.00
2023-05-06T05:21:50.857Z,1214.00
2023-05-06T05:22:50.892Z,1169.00
2023-05-06T05:23:50.895Z,1185.00
2023-05-06T05:24:50.913Z,1163.00
2023-05-06T05:25:50.940Z,1155.00
2023-05-06T05:26:50.949Z,1155.00
2023-05-06T05:27:50.996Z,1144.00
2023-05-06T05:28:51.020Z,1113.00
2023-05-06T05:29:51.034Z,1132.00
2023-05-06T05:30:51.081Z,1112.00
2023-05-06T05:31:51.059Z,1080.00
2023-05-06T05:32:51.218Z,1091.00
2023-05-06T05:33:51.164Z,1123.00
2023-05-06T05:34:51.118Z,1082.00
2023-05-06T05:35:51.169Z,1066.00
2023-05-06T05:36:51.248Z,1093.00
2023-05-06T05:37:51.202Z,1122.00
2023-05-06T05:38:51.203Z,1112.00
2023-05-06T05:39:51.212Z,1122.00
2023-05-06T05:40:51.245Z,1135.00
2023-05-06T05:41:51.274Z,1160.00
2023-05-06T05:42:51.302Z,1158.00
2023-05-06T05:43:51.312Z,1186.00
2023-05-06T05:44:51.337Z,1196.00
2023-05-06T05:45:51.374Z,1192.00
2023-05-06T05:46:51.475Z,1208.00
2023-05-06T05:47:51.507Z,1215.00
2023-05-06T05:48:51.416Z,1228.00
2023-05-06T05:49:51.446Z,1237.00
2023-05-06T05:50:51.463Z,1249.00
2023-05-06T05:51:51.457Z,1260.00
2023-05-06T05:52:51.532Z,1260.00
2023-05-06T05:53:51.506Z,1260.00
2023-05-06T05:54:51.544Z,1255.00
2023-05-06T05:55:51.557Z,1272.00
2023-05-06T05:56:51.550Z,1267.00
2023-05-06T05:57:51.565Z,1266.00
2023-05-06T05:58:51.581Z,1272.00
2023-05-06T05:59:51.659Z,1265.00
2023-05-06T06:00:51.683Z,1269.00
2023-05-06T06:01:51.698Z,1254.00
2023-05-06T06:02:51.717Z,1234.00
2023-05-06T06:03:52.033Z,1235.00
2023-05-06T06:04:51.854Z,1243.00
2023-05-06T06:05:51.751Z,1271.00
2023-05-06T06:06:51.759Z,1276.00
2023-05-06T06:07:51.840Z,1288.00
2023-05-06T06:08:51.878Z,1288.00
2023-05-06T06:09:51.857Z,1291.00
2023-05-06T06:10:51.822Z,1287.00
2023-05-06T06:11:51.851Z,1278.00
2023-05-06T06:12:51.924Z,1297.00
2023-05-06T06:13:51.876Z,1309.00
2023-05-06T06:14:51.876Z,1296.00
2023-05-06T06:15:51.905Z,1320.00
2023-05-06T06:16:51.897Z,1338.00
2023-05-06T06:17:51.978Z,1314.00
2023-05-06T06:18:51.981Z,1314.00
2023-05-06T06:19:51.978Z,1312.00
2023-05-06T06:20:53.476Z,1320.00
2023-05-06T06:21:51.987Z,1326.00
2023-05-06T06:22:52.009Z,1336.00
2023-05-06T06:23:52.003Z,1312.00
2023-05-06T06:24:52.130Z,1310.00
2023-05-06T06:25:52.039Z,1329.00
2023-05-06T06:26:52.130Z,1311.00
2023-05-06T06:27:52.147Z,1290.00
2023-05-06T06:28:52.180Z,1295.00
2023-05-06T06:29:52.193Z,1316.00
2023-05-06T06:30:52.191Z,1300.00
2023-05-06T06:31:52.291Z,1278.00
2023-05-06T06:32:52.326Z,1266.00
2023-05-06T06:33:52.243Z,1262.00
2023-05-06T06:34:52.254Z,1284.00
2023-05-06T06:35:52.270Z,1248.00
2023-05-06T06:36:52.292Z,1252.00
2023-05-06T06:37:52.305Z,1271.00
2023-05-06T06:38:52.296Z,1271.00
2023-05-06T06:39:52.320Z,1271.00
2023-05-06T06:40:52.381Z,1260.00
2023-05-06T06:41:52.332Z,1235.00
2023-05-06T06:42:52.341Z,1248.00
2023-05-06T06:43:52.346Z,1254.00
2023-05-06T06:44:52.397Z,1271.00
2023-05-06T06:45:52.444Z,1251.00
2023-05-06T06:46:52.418Z,1245.00
2023-05-06T06:47:52.455Z,1256.00
2023-05-06T06:48:52.494Z,1287.00
2023-05-06T06:49:52.432Z,1321.00
2023-05-06T06:50:52.445Z,1305.00
2023-05-06T06:51:52.434Z,1330.00
2023-05-06T06:52:52.500Z,1346.00
2023-05-06T06:53:52.472Z,1342.00
2023-05-06T06:54:52.465Z,1353.00
2023-05-06T06:55:52.492Z,1390.00
2023-05-06T06:56:52.478Z,1376.00
2023-05-06T06:57:52.492Z,1362.00
2023-05-06T06:58:53.410Z,1365.00
2023-05-06T06:59:52.478Z,1370.00
2023-05-06T07:00:52.501Z,1366.00
2023-05-06T07:01:52.487Z,1363.00
2023-05-06T07:02:52.530Z,1359.00
2023-05-06T07:03:52.525Z,1369.00
2023-05-06T07:04:52.498Z,1382.00
2023-05-06T07:05:52.544Z,1335.00
2023-05-06T07:06:52.512Z,1312.00
2023-05-06T07:07:52.529Z,1307.00
2023-05-06T07:08:52.556Z,1335.00
2023-05-06T07:09:52.544Z,1313.00
2023-05-06T07:10:52.553Z,1301.00
2023-05-06T07:11:52.574Z,1291.00
2023-05-06T07:12:52.750Z,1255.00
2023-05-06T07:13:52.661Z,1235.00
2023-05-06T07:14:52.704Z,1244.00
2023-05-06T07:15:52.762Z,1232.00
2023-05-06T07:16:52.862Z,1211.00
2023-05-06T07:17:52.931Z,1242.00
2023-05-06T07:18:52.940Z,1257.00
2023-05-06T07:19:53.001Z,1280.00
2023-05-06T07:20:53.041Z,1314.00
2023-05-06T07:21:53.097Z,1348.00
2023-05-06T07:22:53.139Z,1327.00
2023-05-06T07:23:53.174Z,1283.00
2023-05-06T07:24:53.242Z,1266.00
2023-05-06T07:25:53.263Z,1285.00
2023-05-06T07:26:53.300Z,1253.00
2023-05-06T07:27:53.353Z,1229.00
2023-05-06T07:28:53.495Z,1243.00
2023-05-06T07:29:53.421Z,1242.00
2023-05-06T07:30:53.489Z,1230.00
2023-05-06T07:31:53.499Z,1220.00
2023-05-06T07:32:53.619Z,1209.00
2023-05-06T07:33:53.563Z,1209.00
2023-05-06T07:34:53.597Z,1247.00
2023-05-06T07:35:53.671Z,1221.00
2023-05-06T07:36:53.671Z,1237.00
2023-05-06T07:37:53.710Z,1219.00
2023-05-06T07:38:53.756Z,1225.00
2023-05-06T07:39:53.780Z,1216.00
2023-05-06T07:40:53.816Z,1233.00
2023-05-06T07:41:53.835Z,1242.00
2023-05-06T07:42:53.876Z,1240.00
2023-05-06T07:43:53.900Z,1226.00
2023-05-06T07:44:53.959Z,1213.00
2023-05-06T07:45:54.026Z,1230.00
2023-05-06T07:46:54.135Z,1207.00
2023-05-06T07:47:54.132Z,1237.00
2023-05-06T07:48:54.060Z,1200.00
2023-05-06T07:49:54.092Z,1209.00
2023-05-06T07:50:54.104Z,1227.00
2023-05-06T07:51:54.149Z,1212.00
2023-05-06T07:52:54.172Z,1221.00
2023-05-06T07:53:54.204Z,1226.00
2023-05-06T07:54:54.251Z,1204.00
2023-05-06T07:55:54.300Z,1201.00
2023-05-06T07:56:54.314Z,1188.00
2023-05-06T07:57:54.317Z,1201.00
2023-05-06T07:58:54.348Z,1168.00
2023-05-06T07:59:54.398Z,1189.00
2023-05-06T08:00:54.469Z,1197.00
2023-05-06T08:01:54.446Z,1209.00
2023-05-06T08:02:54.570Z,1230.00
2023-05-06T08:03:54.572Z,1241.00
2023-05-06T08:04:54.662Z,1237.00
2023-05-06T08:05:54.584Z,1214.00
2023-05-06T08:06:54.605Z,1198.00
2023-05-06T08:07:54.633Z,1187.00
2023-05-06T08:08:54.680Z,1176.00
2023-05-06T08:09:54.687Z,1169.00
2023-05-06T08:10:54.727Z,1180.00
2023-05-06T08:11:54.748Z,1180.00
2023-05-06T08:12:54.822Z,1177.00
2023-05-06T08:13:54.808Z,1176.00
2023-05-06T08:14:54.864Z,1173.00
2023-05-06T08:15:54.867Z,1184.00
2023-05-06T08:16:54.917Z,1177.00
2023-05-06T08:17:54.969Z,1184.00
2023-05-06T08:18:54.983Z,1192.00
2023-05-06T08:19:55.009Z,1191.00
2023-05-06T08:20:55.024Z,1181.00
2023-05-06T08:21:55.065Z,1176.00
2023-05-06T08:22:55.103Z,1171.00
2023-05-06T08:23:55.121Z,1187.00
2023-05-06T08:24:55.153Z,1191.00
2023-05-06T08:25:55.189Z,1192.00
2023-05-06T08:26:55.241Z,1172.00
2023-05-06T08:27:55.245Z,1176.00
2023-05-06T08:28:55.291Z,1177.00
2023-05-06T08:29:55.317Z,1191.00
2023-05-06T08:30:55.362Z,1188.00
2023-05-06T08:31:55.434Z,1221.00
2023-05-06T08:32:55.432Z,1219.00
2023-05-06T08:33:55.456Z,1229.00
2023-05-06T08:34:55.482Z,1189.00
2023-05-06T08:35:55.500Z,1189.00
2023-05-06T08:36:55.553Z,1237.00
2023-05-06T08:37:55.575Z,1221.00
2023-05-06T08:38:55.612Z,1216.00
2023-05-06T08:39:55.642Z,1194.00
2023-05-06T08:40:55.681Z,1233.00
2023-05-06T08:41:55.727Z,1219.00
2023-05-06T08:42:55.749Z,1242.00
2023-05-06T08:43:55.793Z,1189.00
2023-05-06T08:44:55.858Z,1179.00
2023-05-06T08:45:55.910Z,1166.00
2023-05-06T08:46:55.883Z,1173.00
2023-05-06T08:47:55.981Z,1149.00
2023-05-06T08:48:55.960Z,1165.00
2023-05-06T08:49:56.008Z,1180.00
2023-05-06T08:50:56.019Z,1214.00
2023-05-06T08:51:56.052Z,1198.00
2023-05-06T08:52:56.107Z,1171.00
2023-05-06T08:53:56.114Z,1174.00
2023-05-06T08:54:56.140Z,1180.00
2023-05-06T08:55:56.205Z,1180.00
2023-05-06T08:56:56.217Z,1225.00
2023-05-06T08:57:56.240Z,1206.00
2023-05-06T08:58:56.298Z,1187.00
2023-05-06T08:59:56.314Z,1175.00
2023-05-06T09:00:56.367Z,1197.00
2023-05-06T09:01:56.418Z,1188.00
2023-05-06T09:02:56.489Z,1186.00
2023-05-06T09:03:56.434Z,1192.00
2023-05-06T09:04:56.601Z,1206.00
2023-05-06T09:05:56.510Z,1203.00
2023-05-06T09:06:56.549Z,1192.00
2023-05-06T09:07:56.565Z,1205.00
2023-05-06T09:08:56.590Z,1225.00
2023-05-06T09:09:56.634Z,1251.00
2023-05-06T09:10:56.682Z,1300.00
2023-05-06T09:11:56.702Z,1291.00
2023-05-06T09:12:56.765Z,1277.00
2023-05-06T09:13:56.762Z,1308.00
2023-05-06T09:14:56.792Z,1266.00
2023-05-06T09:15:56.851Z,1264.00
2023-05-06T09:16:56.967Z,1285.00
2023-05-06T09:17:56.964Z,1285.00
2023-05-06T09:18:57.000Z,1285.00
2023-05-06T09:19:57.030Z,1281.00
2023-05-06T09:20:58.781Z,1286.00
2023-05-06T09:21:57.013Z,1317.00
2023-05-06T09:22:57.008Z,1333.00
2023-05-06T09:23:56.996Z,1321.00
2023-05-06T09:24:57.164Z,1366.00
2023-05-06T09:25:56.987Z,1357.00
2023-05-06T09:26:56.968Z,1341.00
2023-05-06T09:27:56.986Z,1335.00
2023-05-06T09:28:56.964Z,1314.00
2023-05-06T09:29:56.944Z,1313.00
2023-05-06T09:30:56.941Z,1338.00
2023-05-06T09:31:56.953Z,1320.00
2023-05-06T09:32:56.961Z,1342.00
2023-05-06T09:33:56.941Z,1339.00
2023-05-06T09:34:56.944Z,1339.00
2023-05-06T09:35:56.901Z,1366.00
2023-05-06T09:36:57.024Z,1338.00
2023-05-06T09:37:56.906Z,1338.00
2023-05-06T09:38:56.907Z,1339.00
2023-05-06T09:39:56.890Z,1332.00
2023-05-06T09:40:56.888Z,1332.00
2023-05-06T09:41:56.864Z,1329.00
2023-05-06T09:42:56.859Z,1312.00
2023-05-06T09:43:56.852Z,1317.00
2023-05-06T09:44:58.155Z,1298.00
2023-05-06T09:45:56.858Z,1298.00
2023-05-06T09:46:56.821Z,1300.00
2023-05-06T09:47:56.951Z,1300.00
2023-05-06T09:48:56.842Z,1272.00
2023-05-06T09:49:56.819Z,1280.00
2023-05-06T09:50:57.906Z,1264.00
2023-05-06T09:51:56.941Z,1265.00
2023-05-06T09:52:57.116Z,1250.00
2023-05-06T09:53:56.991Z,1232.00
2023-05-06T09:54:57.004Z,1234.00
2023-05-06T09:55:57.458Z,1208.00
2023-05-06T09:56:58.317Z,1230.00
2023-05-06T09:57:57.023Z,1220.00
2023-05-06T09:58:57.017Z,1212.00
2023-05-06T09:59:57.006Z,1195.00
2023-05-06T10:00:56.984Z,1244.00
2023-05-06T10:01:57.028Z,1243.00
2023-05-06T10:02:57.161Z,1234.00
2023-05-06T10:03:57.180Z,1229.00
2023-05-06T10:04:57.220Z,1198.00
2023-05-06T10:05:56.973Z,1175.00
2023-05-06T10:06:56.947Z,1150.00
2023-05-06T10:07:56.958Z,1154.00
2023-05-06T10:08:56.996Z,1171.00
2023-05-06T10:09:56.930Z,1152.00
2023-05-06T10:10:56.969Z,1160.00
2023-05-06T10:11:56.919Z,1157.00
2023-05-06T10:12:56.970Z,1166.00
2023-05-06T10:13:56.912Z,1165.00
2023-05-06T10:14:56.907Z,1167.00
2023-05-06T10:15:56.964Z,1180.00
2023-05-06T10:16:56.885Z,1171.00
2023-05-06T10:17:56.889Z,1199.00
2023-05-06T10:18:56.862Z,1189.00
2023-05-06T10:19:56.876Z,1183.00
2023-05-06T10:20:56.866Z,1221.00
2023-05-06T10:21:56.853Z,1209.00
2023-05-06T10:22:56.851Z,1187.00
2023-05-06T10:23:56.855Z,1227.00
2023-05-06T10:24:57.383Z,1259.00
2023-05-06T10:25:56.852Z,1259.00
2023-05-06T10:26:56.822Z,1244.00
2023-05-06T10:27:56.812Z,1225.00
2023-05-06T10:28:56.822Z,1238.00
2023-05-06T10:29:56.808Z,1239.00
2023-05-06T10:30:56.808Z,1234.00
2023-05-06T10:31:56.806Z,1228.00
2023-05-06T10:32:56.799Z,1220.00
2023-05-06T10:33:56.780Z,1245.00
2023-05-06T10:34:56.774Z,1233.00
2023-05-06T10:35:56.826Z,1228.00
2023-05-06T10:36:56.731Z,1221.00
2023-05-06T10:37:56.753Z,1220.00
2023-05-06T10:38:56.736Z,1247.00
2023-05-06T10:39:56.726Z,1212.00
2023-05-06T10:40:56.824Z,1228.00
2023-05-06T10:41:56.716Z,1253.00
2023-05-06T10:42:56.716Z,1207.00
2023-05-06T10:43:56.936Z,1222.00
2023-05-06T10:44:56.706Z,1249.00
2023-05-06T10:45:56.711Z,1242.00
2023-05-06T10:46:56.662Z,1219.00
2023-05-06T10:47:56.676Z,1234.00
2023-05-06T10:48:56.655Z,1261.00
2023-05-06T10:49:56.649Z,1244.00
2023-05-06T10:50:56.649Z,1229.00
2023-05-06T10:51:56.644Z,1237.00
2023-05-06T10:52:56.653Z,1223.00
2023-05-06T10:53:56.650Z,1244.00
2023-05-06T10:54:56.616Z,1239.00
2023-05-06T10:55:56.614Z,1228.00
2023-05-06T10:56:56.640Z,1217.00
2023-05-06T10:57:56.611Z,1209.00
2023-05-06T10:58:56.600Z,1200.00
2023-05-06T10:59:56.598Z,1193.00
2023-05-06T11:00:56.604Z,1194.00
2023-05-06T11:01:56.574Z,1202.00
2023-05-06T11:02:56.677Z,1207.00
2023-05-06T11:03:56.582Z,1246.00
2023-05-06T11:04:56.566Z,1249.00
2023-05-06T11:05:56.568Z,1258.00
2023-05-06T11:06:56.552Z,1250.00
2023-05-06T11:07:56.528Z,1227.00
2023-05-06T11:08:56.569Z,1234.00
2023-05-06T11:09:56.515Z,1255.00
2023-05-06T11:10:56.540Z,1263.00
2023-05-06T11:11:56.500Z,1228.00
2023-05-06T11:12:56.512Z,1188.00
2023-05-06T11:13:56.505Z,1233.00
2023-05-06T11:14:56.485Z,1206.00
2023-05-06T11:15:56.500Z,1242.00
2023-05-06T11:16:56.520Z,1218.00
2023-05-06T11:17:56.542Z,1206.00
2023-05-06T11:18:56.493Z,1211.00
2023-05-06T11:19:56.465Z,1216.00
2023-05-06T11:20:56.460Z,1183.00
2023-05-06T11:21:56.437Z,1168.00
2023-05-06T11:22:56.444Z,1186.00
2023-05-06T11:23:56.436Z,1142.00
2023-05-06T11:24:56.420Z,1109.00
2023-05-06T11:25:56.409Z,1106.00
2023-05-06T11:26:56.441Z,1102.00
2023-05-06T11:27:56.424Z,1147.00
2023-05-06T11:28:56.451Z,1109.00
2023-05-06T11:29:56.400Z,1118.00
2023-05-06T11:30:56.428Z,1075.00
2023-05-06T11:31:56.378Z,1078.00
2023-05-06T11:32:56.378Z,1057.00
2023-05-06T11:33:56.357Z,1069.00
2023-05-06T11:34:56.344Z,1069.00
2023-05-06T11:35:56.337Z,1052.00
2023-05-06T11:36:56.343Z,1039.00
2023-05-06T11:37:56.342Z,1047.00
2023-05-06T11:38:56.319Z,1044.00
2023-05-06T11:39:56.367Z,1029.00
2023-05-06T11:40:56.311Z,1030.00
2023-05-06T11:41:56.296Z,970.00
2023-05-06T11:42:56.292Z,1013.00
2023-05-06T11:43:56.288Z,1013.00
2023-05-06T11:44:56.573Z,1068.00
2023-05-06T11:45:56.277Z,1057.00
2023-05-06T11:46:56.265Z,1006.00
2023-05-06T11:47:56.278Z,1003.00
2023-05-06T11:48:56.269Z,1005.00
2023-05-06T11:49:56.237Z,981.00
2023-05-06T11:50:56.250Z,969.00
2023-05-06T11:51:56.242Z,992.00
2023-05-06T11:52:56.221Z,1018.00
2023-05-06T11:53:56.221Z,1030.00
2023-05-06T11:54:56.227Z,1041.00
2023-05-06T11:55:56.226Z,1009.00
2023-05-06T11:56:56.248Z,974.00
2023-05-06T11:57:56.289Z,1024.00
2023-05-06T11:58:56.354Z,1022.00
2023-05-06T11:59:56.380Z,1030.00
2023-05-06T12:00:56.547Z,1009.00
2023-05-06T12:01:56.504Z,993.00
2023-05-06T12:02:56.641Z,976.00
2023-05-06T12:03:56.796Z,985.00
2023-05-06T12:04:56.942Z,996.00
2023-05-06T12:05:56.748Z,1014.00
2023-05-06T12:06:56.796Z,1030.00